Samsun Carsamba Airport Samsun TR
ICAO: LTFH
IATA: SZF
Category: Medium
Scheduled Services: Yes

Elevation: 18 ft
TransAlt. 10000 ft.

Airport Communications:
APP:118.175
ATIS:129.35
GND:121.7
TWR:118.35

LTFH Zoom In..

If you have problems with the map follow the link
https://www.worldairports.se/pages/airport.php?
ICAO=LTFH

Runways:

(A) RW 13 length 9843 ft width 148 ft
ILS 110.10 / hdg 129

(B) RW 31 length 9843 ft width 148 ft
---- / hdg 309

Location; LTFH
Day. 22 / Time. 11.50 Zulu
* QNH: 1019
* Temperature: 20° c. 68°f.
* Wind from: 330° Speed 09 kn.
Dewpoint: 15° c.
Visibility: 10 km or more.
Clouds: Scattered 3600 ft.
Clouds: Broken 1000 ft.
No significant changes expected in the near future.

LTFH 221150Z 33009KT 9999 SCT036 BKN100 20/15 Q1019 NOSIG


Wind From 330°
Speed 09 kn.

 
 
jpsmedia.com for Web Design worldairports.se 2018   terms of use